sensor_id;sensor_type;location;lat;lon;timestamp;P1;durP1;ratioP1;P2;durP2;ratioP2
27889;SDS011;15238;49.082;9.102;2023-05-17T00:00:42;3.47;;;0.95;;
27889;SDS011;15238;49.082;9.102;2023-05-17T00:02:42;2.47;;;0.68;;
27889;SDS011;15238;49.082;9.102;2023-05-17T00:04:43;1.00;;;0.60;;
27889;SDS011;15238;49.082;9.102;2023-05-17T00:06:46;2.17;;;0.63;;
27889;SDS011;15238;49.082;9.102;2023-05-17T00:08:46;5.63;;;1.17;;
27889;SDS011;15238;49.082;9.102;2023-05-17T00:10:47;6.57;;;0.65;;
27889;SDS011;15238;49.082;9.102;2023-05-17T00:12:47;3.33;;;0.77;;
27889;SDS011;15238;49.082;9.102;2023-05-17T00:14:48;2.33;;;0.60;;
27889;SDS011;15238;49.082;9.102;2023-05-17T00:16:48;4.90;;;0.93;;
27889;SDS011;15238;49.082;9.102;2023-05-17T00:18:49;3.80;;;0.90;;
27889;SDS011;15238;49.082;9.102;2023-05-17T00:20:50;3.97;;;0.85;;
27889;SDS011;15238;49.082;9.102;2023-05-17T00:22:50;3.10;;;0.55;;
27889;SDS011;15238;49.082;9.102;2023-05-17T00:24:51;3.92;;;0.88;;
27889;SDS011;15238;49.082;9.102;2023-05-17T00:26:51;4.30;;;1.20;;
27889;SDS011;15238;49.082;9.102;2023-05-17T00:28:52;1.23;;;0.60;;
27889;SDS011;15238;49.082;9.102;2023-05-17T00:30:52;4.40;;;0.70;;
27889;SDS011;15238;49.082;9.102;2023-05-17T00:32:53;4.55;;;1.10;;
27889;SDS011;15238;49.082;9.102;2023-05-17T00:34:53;2.28;;;0.90;;
27889;SDS011;15238;49.082;9.102;2023-05-17T00:36:54;4.97;;;0.75;;
27889;SDS011;15238;49.082;9.102;2023-05-17T00:38:54;3.28;;;0.80;;
27889;SDS011;15238;49.082;9.102;2023-05-17T00:40:55;3.33;;;1.00;;
27889;SDS011;15238;49.082;9.102;2023-05-17T00:42:55;5.05;;;1.13;;
27889;SDS011;15238;49.082;9.102;2023-05-17T00:44:56;4.90;;;0.55;;
27889;SDS011;15238;49.082;9.102;2023-05-17T00:46:57;11.02;;;2.70;;
27889;SDS011;15238;49.082;9.102;2023-05-17T00:48:58;4.55;;;0.70;;
27889;SDS011;15238;49.082;9.102;2023-05-17T00:50:59;4.20;;;0.93;;
27889;SDS011;15238;49.082;9.102;2023-05-17T00:52:59;4.00;;;0.93;;
27889;SDS011;15238;49.082;9.102;2023-05-17T00:55:00;1.63;;;0.80;;
27889;SDS011;15238;49.082;9.102;2023-05-17T00:57:01;5.18;;;1.58;;
27889;SDS011;15238;49.082;9.102;2023-05-17T00:59:03;5.50;;;0.50;;
27889;SDS011;15238;49.082;9.102;2023-05-17T01:01:05;5.20;;;0.90;;
27889;SDS011;15238;49.082;9.102;2023-05-17T01:03:06;3.05;;;0.73;;
27889;SDS011;15238;49.082;9.102;2023-05-17T01:05:06;3.15;;;0.90;;
27889;SDS011;15238;49.082;9.102;2023-05-17T01:07:07;1.60;;;0.77;;
27889;SDS011;15238;49.082;9.102;2023-05-17T01:09:09;4.03;;;1.02;;
27889;SDS011;15238;49.082;9.102;2023-05-17T01:11:17;2.22;;;0.80;;
27889;SDS011;15238;49.082;9.102;2023-05-17T01:13:33;2.20;;;0.70;;
27889;SDS011;15238;49.082;9.102;2023-05-17T01:15:50;4.05;;;0.98;;
27889;SDS011;15238;49.082;9.102;2023-05-17T01:20:10;4.10;;;0.60;;
27889;SDS011;15238;49.082;9.102;2023-05-17T01:22:37;5.32;;;0.80;;
27889;SDS011;15238;49.082;9.102;2023-05-17T01:27:27;11.68;;;0.82;;
27889;SDS011;15238;49.082;9.102;2023-05-17T01:29:30;1.95;;;0.70;;
27889;SDS011;15238;49.082;9.102;2023-05-17T01:31:32;1.33;;;0.60;;
27889;SDS011;15238;49.082;9.102;2023-05-17T01:33:34;3.50;;;0.90;;
27889;SDS011;15238;49.082;9.102;2023-05-17T01:35:35;3.15;;;0.52;;
27889;SDS011;15238;49.082;9.102;2023-05-17T01:37:36;5.30;;;1.10;;
27889;SDS011;15238;49.082;9.102;2023-05-17T01:39:37;1.17;;;0.55;;
27889;SDS011;15238;49.082;9.102;2023-05-17T01:41:39;3.17;;;0.90;;
27889;SDS011;15238;49.082;9.102;2023-05-17T01:43:54;1.58;;;0.63;;
27889;SDS011;15238;49.082;9.102;2023-05-17T01:46:07;2.22;;;0.50;;
27889;SDS011;15238;49.082;9.102;2023-05-17T01:48:22;2.63;;;0.70;;
27889;SDS011;15238;49.082;9.102;2023-05-17T01:50:29;3.08;;;0.77;;
27889;SDS011;15238;49.082;9.102;2023-05-17T01:54:38;3.30;;;1.60;;
27889;SDS011;15238;49.082;9.102;2023-05-17T01:56:47;6.00;;;1.00;;
27889;SDS011;15238;49.082;9.102;2023-05-17T01:58:50;2.53;;;0.80;;
27889;SDS011;15238;49.082;9.102;2023-05-17T02:00:53;1.48;;;0.50;;
27889;SDS011;15238;49.082;9.102;2023-05-17T02:02:56;4.40;;;1.83;;
27889;SDS011;15238;49.082;9.102;2023-05-17T02:04:56;2.28;;;0.73;;
27889;SDS011;15238;49.082;9.102;2023-05-17T02:06:57;3.45;;;0.75;;
27889;SDS011;15238;49.082;9.102;2023-05-17T02:08:57;2.85;;;0.65;;
27889;SDS011;15238;49.082;9.102;2023-05-17T02:11:01;1.70;;;0.57;;
27889;SDS011;15238;49.082;9.102;2023-05-17T02:13:02;1.95;;;0.60;;
27889;SDS011;15238;49.082;9.102;2023-05-17T02:15:03;4.78;;;0.90;;
27889;SDS011;15238;49.082;9.102;2023-05-17T02:17:04;3.33;;;0.75;;
27889;SDS011;15238;49.082;9.102;2023-05-17T02:19:04;5.13;;;0.73;;
27889;SDS011;15238;49.082;9.102;2023-05-17T02:21:07;4.45;;;1.05;;
27889;SDS011;15238;49.082;9.102;2023-05-17T02:23:08;3.72;;;0.95;;
27889;SDS011;15238;49.082;9.102;2023-05-17T02:25:08;3.58;;;0.80;;
27889;SDS011;15238;49.082;9.102;2023-05-17T02:27:09;5.25;;;0.73;;
27889;SDS011;15238;49.082;9.102;2023-05-17T02:29:10;3.88;;;1.05;;
27889;SDS011;15238;49.082;9.102;2023-05-17T02:31:10;1.50;;;0.80;;
27889;SDS011;15238;49.082;9.102;2023-05-17T02:33:11;3.05;;;0.75;;
27889;SDS011;15238;49.082;9.102;2023-05-17T02:35:11;2.50;;;0.70;;
27889;SDS011;15238;49.082;9.102;2023-05-17T02:37:12;2.67;;;0.77;;
27889;SDS011;15238;49.082;9.102;2023-05-17T02:39:12;3.38;;;0.80;;
27889;SDS011;15238;49.082;9.102;2023-05-17T02:41:13;4.43;;;0.95;;
27889;SDS011;15238;49.082;9.102;2023-05-17T02:43:14;2.95;;;0.70;;
27889;SDS011;15238;49.082;9.102;2023-05-17T02:45:14;4.13;;;0.90;;
27889;SDS011;15238;49.082;9.102;2023-05-17T02:47:15;2.40;;;0.70;;
27889;SDS011;15238;49.082;9.102;2023-05-17T02:49:15;2.80;;;0.80;;
27889;SDS011;15238;49.082;9.102;2023-05-17T02:51:16;4.28;;;0.98;;
27889;SDS011;15238;49.082;9.102;2023-05-17T02:53:16;1.75;;;1.10;;
27889;SDS011;15238;49.082;9.102;2023-05-17T02:55:17;2.90;;;0.93;;
27889;SDS011;15238;49.082;9.102;2023-05-17T02:57:18;4.22;;;0.90;;
27889;SDS011;15238;49.082;9.102;2023-05-17T02:59:18;1.77;;;1.00;;
27889;SDS011;15238;49.082;9.102;2023-05-17T03:01:19;2.15;;;0.90;;
27889;SDS011;15238;49.082;9.102;2023-05-17T03:03:20;2.80;;;0.93;;
27889;SDS011;15238;49.082;9.102;2023-05-17T03:05:20;4.65;;;1.10;;
27889;SDS011;15238;49.082;9.102;2023-05-17T03:07:21;3.30;;;0.95;;
27889;SDS011;15238;49.082;9.102;2023-05-17T03:09:21;1.85;;;0.73;;
27889;SDS011;15238;49.082;9.102;2023-05-17T03:11:22;6.20;;;1.10;;
27889;SDS011;15238;49.082;9.102;2023-05-17T03:13:22;4.22;;;1.00;;
27889;SDS011;15238;49.082;9.102;2023-05-17T03:15:23;3.00;;;0.88;;
27889;SDS011;15238;49.082;9.102;2023-05-17T03:17:25;5.28;;;1.23;;
27889;SDS011;15238;49.082;9.102;2023-05-17T03:19:26;3.13;;;1.10;;
27889;SDS011;15238;49.082;9.102;2023-05-17T03:21:26;1.77;;;0.93;;
27889;SDS011;15238;49.082;9.102;2023-05-17T03:23:27;3.08;;;1.20;;
27889;SDS011;15238;49.082;9.102;2023-05-17T03:25:27;3.30;;;1.10;;
27889;SDS011;15238;49.082;9.102;2023-05-17T03:27:28;2.08;;;1.00;;
27889;SDS011;15238;49.082;9.102;2023-05-17T03:29:29;4.65;;;1.02;;
27889;SDS011;15238;49.082;9.102;2023-05-17T03:31:30;8.60;;;1.33;;
27889;SDS011;15238;49.082;9.102;2023-05-17T03:33:30;2.83;;;0.93;;
27889;SDS011;15238;49.082;9.102;2023-05-17T03:35:31;2.85;;;0.85;;
27889;SDS011;15238;49.082;9.102;2023-05-17T03:37:32;6.53;;;1.10;;
27889;SDS011;15238;49.082;9.102;2023-05-17T03:39:32;3.03;;;1.00;;
27889;SDS011;15238;49.082;9.102;2023-05-17T03:41:33;4.80;;;1.15;;
27889;SDS011;15238;49.082;9.102;2023-05-17T03:43:33;4.05;;;1.40;;
27889;SDS011;15238;49.082;9.102;2023-05-17T03:45:34;3.83;;;1.10;;
27889;SDS011;15238;49.082;9.102;2023-05-17T03:47:35;2.90;;;1.27;;
27889;SDS011;15238;49.082;9.102;2023-05-17T03:49:35;2.38;;;1.25;;
27889;SDS011;15238;49.082;9.102;2023-05-17T03:51:36;5.20;;;1.58;;
27889;SDS011;15238;49.082;9.102;2023-05-17T03:53:36;2.50;;;0.88;;
27889;SDS011;15238;49.082;9.102;2023-05-17T03:55:41;6.25;;;1.63;;
27889;SDS011;15238;49.082;9.102;2023-05-17T03:57:42;3.45;;;1.30;;
27889;SDS011;15238;49.082;9.102;2023-05-17T03:59:43;5.10;;;1.30;;
27889;SDS011;15238;49.082;9.102;2023-05-17T04:01:43;2.38;;;1.00;;
27889;SDS011;15238;49.082;9.102;2023-05-17T04:03:45;2.75;;;1.20;;
27889;SDS011;15238;49.082;9.102;2023-05-17T04:05:46;5.85;;;1.20;;
27889;SDS011;15238;49.082;9.102;2023-05-17T04:07:46;3.08;;;1.20;;
27889;SDS011;15238;49.082;9.102;2023-05-17T04:09:47;3.47;;;1.02;;
27889;SDS011;15238;49.082;9.102;2023-05-17T04:11:47;7.10;;;1.70;;
27889;SDS011;15238;49.082;9.102;2023-05-17T04:13:48;4.80;;;1.63;;
27889;SDS011;15238;49.082;9.102;2023-05-17T04:15:48;5.35;;;1.10;;
27889;SDS011;15238;49.082;9.102;2023-05-17T04:17:49;4.32;;;0.90;;
27889;SDS011;15238;49.082;9.102;2023-05-17T04:19:50;3.60;;;1.25;;
27889;SDS011;15238;49.082;9.102;2023-05-17T04:21:50;2.72;;;0.98;;
27889;SDS011;15238;49.082;9.102;2023-05-17T04:23:51;1.75;;;0.88;;
27889;SDS011;15238;49.082;9.102;2023-05-17T04:25:51;3.92;;;0.95;;
27889;SDS011;15238;49.082;9.102;2023-05-17T04:27:52;5.75;;;1.02;;
27889;SDS011;15238;49.082;9.102;2023-05-17T04:29:53;4.07;;;1.38;;
27889;SDS011;15238;49.082;9.102;2023-05-17T04:31:53;6.07;;;1.30;;
27889;SDS011;15238;49.082;9.102;2023-05-17T04:33:54;6.03;;;1.50;;
27889;SDS011;15238;49.082;9.102;2023-05-17T04:35:55;5.70;;;1.75;;
27889;SDS011;15238;49.082;9.102;2023-05-17T04:37:56;2.00;;;1.02;;
27889;SDS011;15238;49.082;9.102;2023-05-17T04:39:56;2.53;;;1.10;;
27889;SDS011;15238;49.082;9.102;2023-05-17T04:41:58;2.42;;;1.10;;
27889;SDS011;15238;49.082;9.102;2023-05-17T04:43:58;2.50;;;1.10;;
27889;SDS011;15238;49.082;9.102;2023-05-17T04:45:59;4.55;;;1.20;;
27889;SDS011;15238;49.082;9.102;2023-05-17T04:48:00;4.97;;;1.50;;
27889;SDS011;15238;49.082;9.102;2023-05-17T04:50:00;2.60;;;1.33;;
27889;SDS011;15238;49.082;9.102;2023-05-17T04:52:03;3.22;;;1.73;;
27889;SDS011;15238;49.082;9.102;2023-05-17T04:54:04;6.78;;;2.10;;
27889;SDS011;15238;49.082;9.102;2023-05-17T04:56:07;6.15;;;1.42;;
27889;SDS011;15238;49.082;9.102;2023-05-17T04:58:08;5.78;;;1.45;;
27889;SDS011;15238;49.082;9.102;2023-05-17T05:00:08;6.78;;;1.90;;
27889;SDS011;15238;49.082;9.102;2023-05-17T05:02:09;2.80;;;1.40;;
27889;SDS011;15238;49.082;9.102;2023-05-17T05:04:10;5.50;;;1.90;;
27889;SDS011;15238;49.082;9.102;2023-05-17T05:06:11;5.18;;;1.60;;
27889;SDS011;15238;49.082;9.102;2023-05-17T05:08:11;7.13;;;1.70;;
27889;SDS011;15238;49.082;9.102;2023-05-17T05:10:12;5.30;;;1.70;;
27889;SDS011;15238;49.082;9.102;2023-05-17T05:12:12;5.57;;;1.73;;
27889;SDS011;15238;49.082;9.102;2023-05-17T05:14:13;5.07;;;1.77;;
27889;SDS011;15238;49.082;9.102;2023-05-17T05:16:13;4.78;;;1.58;;
27889;SDS011;15238;49.082;9.102;2023-05-17T05:18:14;6.93;;;1.50;;
27889;SDS011;15238;49.082;9.102;2023-05-17T05:20:14;5.47;;;1.73;;
27889;SDS011;15238;49.082;9.102;2023-05-17T05:22:15;4.68;;;1.70;;
27889;SDS011;15238;49.082;9.102;2023-05-17T05:24:15;6.22;;;1.70;;
27889;SDS011;15238;49.082;9.102;2023-05-17T05:26:16;4.10;;;1.40;;
27889;SDS011;15238;49.082;9.102;2023-05-17T05:28:16;3.63;;;1.40;;
27889;SDS011;15238;49.082;9.102;2023-05-17T05:30:17;4.90;;;1.40;;
27889;SDS011;15238;49.082;9.102;2023-05-17T05:32:21;9.55;;;1.40;;
27889;SDS011;15238;49.082;9.102;2023-05-17T05:34:21;3.47;;;1.48;;
27889;SDS011;15238;49.082;9.102;2023-05-17T05:36:22;5.00;;;1.65;;
27889;SDS011;15238;49.082;9.102;2023-05-17T05:38:22;5.30;;;1.33;;
27889;SDS011;15238;49.082;9.102;2023-05-17T05:40:23;5.85;;;1.40;;
27889;SDS011;15238;49.082;9.102;2023-05-17T05:42:23;3.75;;;1.42;;
27889;SDS011;15238;49.082;9.102;2023-05-17T05:44:24;4.18;;;1.30;;
27889;SDS011;15238;49.082;9.102;2023-05-17T05:46:25;6.45;;;1.88;;
27889;SDS011;15238;49.082;9.102;2023-05-17T05:48:25;3.13;;;0.90;;
27889;SDS011;15238;49.082;9.102;2023-05-17T05:50:26;5.97;;;1.77;;
27889;SDS011;15238;49.082;9.102;2023-05-17T05:52:26;5.88;;;1.30;;
27889;SDS011;15238;49.082;9.102;2023-05-17T05:54:27;5.47;;;1.50;;
27889;SDS011;15238;49.082;9.102;2023-05-17T05:56:27;6.03;;;1.58;;
27889;SDS011;15238;49.082;9.102;2023-05-17T05:58:28;4.25;;;1.60;;
27889;SDS011;15238;49.082;9.102;2023-05-17T06:00:29;4.75;;;1.27;;
27889;SDS011;15238;49.082;9.102;2023-05-17T06:02:30;4.78;;;1.60;;
27889;SDS011;15238;49.082;9.102;2023-05-17T06:04:30;4.95;;;1.67;;
27889;SDS011;15238;49.082;9.102;2023-05-17T06:06:31;10.57;;;1.80;;
27889;SDS011;15238;49.082;9.102;2023-05-17T06:08:32;5.82;;;1.35;;
27889;SDS011;15238;49.082;9.102;2023-05-17T06:10:32;5.90;;;2.03;;
27889;SDS011;15238;49.082;9.102;2023-05-17T06:12:33;4.45;;;1.80;;
27889;SDS011;15238;49.082;9.102;2023-05-17T06:14:33;6.05;;;1.92;;
27889;SDS011;15238;49.082;9.102;2023-05-17T06:16:36;5.22;;;1.65;;
27889;SDS011;15238;49.082;9.102;2023-05-17T06:18:36;5.50;;;1.77;;
27889;SDS011;15238;49.082;9.102;2023-05-17T06:20:37;3.72;;;1.77;;
27889;SDS011;15238;49.082;9.102;2023-05-17T06:22:37;5.32;;;1.90;;
27889;SDS011;15238;49.082;9.102;2023-05-17T06:24:38;4.78;;;2.05;;
27889;SDS011;15238;49.082;9.102;2023-05-17T06:26:38;8.70;;;2.28;;
27889;SDS011;15238;49.082;9.102;2023-05-17T06:28:39;7.78;;;2.00;;
27889;SDS011;15238;49.082;9.102;2023-05-17T06:30:40;6.35;;;1.55;;
27889;SDS011;15238;49.082;9.102;2023-05-17T06:32:40;5.85;;;1.58;;
27889;SDS011;15238;49.082;9.102;2023-05-17T06:34:41;5.38;;;2.03;;
27889;SDS011;15238;49.082;9.102;2023-05-17T06:36:42;3.33;;;1.42;;
27889;SDS011;15238;49.082;9.102;2023-05-17T06:38:42;6.28;;;2.10;;
27889;SDS011;15238;49.082;9.102;2023-05-17T06:40:43;8.43;;;2.00;;
27889;SDS011;15238;49.082;9.102;2023-05-17T06:42:43;5.30;;;1.92;;
27889;SDS011;15238;49.082;9.102;2023-05-17T06:44:44;8.57;;;2.15;;
27889;SDS011;15238;49.082;9.102;2023-05-17T06:46:44;6.22;;;1.85;;
27889;SDS011;15238;49.082;9.102;2023-05-17T06:48:45;5.47;;;2.10;;
27889;SDS011;15238;49.082;9.102;2023-05-17T06:50:45;6.20;;;2.00;;
27889;SDS011;15238;49.082;9.102;2023-05-17T06:52:46;7.50;;;2.08;;
27889;SDS011;15238;49.082;9.102;2023-05-17T06:54:46;4.25;;;2.13;;
27889;SDS011;15238;49.082;9.102;2023-05-17T06:56:47;7.00;;;1.77;;
27889;SDS011;15238;49.082;9.102;2023-05-17T06:58:47;7.90;;;2.97;;
27889;SDS011;15238;49.082;9.102;2023-05-17T07:00:48;5.68;;;2.05;;
27889;SDS011;15238;49.082;9.102;2023-05-17T07:02:48;6.07;;;1.95;;
27889;SDS011;15238;49.082;9.102;2023-05-17T07:04:49;5.80;;;2.20;;
27889;SDS011;15238;49.082;9.102;2023-05-17T07:06:50;6.70;;;2.33;;
27889;SDS011;15238;49.082;9.102;2023-05-17T07:08:50;8.55;;;2.50;;
27889;SDS011;15238;49.082;9.102;2023-05-17T07:10:51;5.10;;;2.42;;
27889;SDS011;15238;49.082;9.102;2023-05-17T07:12:52;10.48;;;2.00;;
27889;SDS011;15238;49.082;9.102;2023-05-17T07:14:52;7.18;;;2.50;;
27889;SDS011;15238;49.082;9.102;2023-05-17T07:16:53;10.10;;;2.33;;
27889;SDS011;15238;49.082;9.102;2023-05-17T07:18:53;7.18;;;2.50;;
27889;SDS011;15238;49.082;9.102;2023-05-17T07:20:54;9.00;;;2.13;;
27889;SDS011;15238;49.082;9.102;2023-05-17T07:22:55;6.57;;;1.92;;
27889;SDS011;15238;49.082;9.102;2023-05-17T07:24:55;7.30;;;2.72;;
27889;SDS011;15238;49.082;9.102;2023-05-17T07:26:56;7.03;;;2.65;;
27889;SDS011;15238;49.082;9.102;2023-05-17T07:28:56;9.27;;;3.30;;
27889;SDS011;15238;49.082;9.102;2023-05-17T07:30:57;7.55;;;2.20;;
27889;SDS011;15238;49.082;9.102;2023-05-17T07:32:57;9.32;;;2.90;;
27889;SDS011;15238;49.082;9.102;2023-05-17T07:34:58;6.97;;;2.40;;
27889;SDS011;15238;49.082;9.102;2023-05-17T07:36:58;6.50;;;2.58;;
27889;SDS011;15238;49.082;9.102;2023-05-17T07:38:59;6.03;;;2.60;;
27889;SDS011;15238;49.082;9.102;2023-05-17T07:41:00;8.07;;;2.80;;
27889;SDS011;15238;49.082;9.102;2023-05-17T07:43:00;6.35;;;2.38;;
27889;SDS011;15238;49.082;9.102;2023-05-17T07:45:01;7.50;;;2.35;;
27889;SDS011;15238;49.082;9.102;2023-05-17T07:47:02;6.40;;;3.35;;
27889;SDS011;15238;49.082;9.102;2023-05-17T07:49:02;6.28;;;2.15;;
27889;SDS011;15238;49.082;9.102;2023-05-17T07:51:03;9.10;;;2.90;;
27889;SDS011;15238;49.082;9.102;2023-05-17T07:53:03;7.18;;;2.10;;
27889;SDS011;15238;49.082;9.102;2023-05-17T07:55:04;7.15;;;3.10;;
27889;SDS011;15238;49.082;9.102;2023-05-17T07:57:05;7.15;;;3.15;;
27889;SDS011;15238;49.082;9.102;2023-05-17T07:59:06;7.18;;;2.30;;
27889;SDS011;15238;49.082;9.102;2023-05-17T08:01:06;6.95;;;2.53;;
27889;SDS011;15238;49.082;9.102;2023-05-17T08:03:08;7.93;;;2.40;;
27889;SDS011;15238;49.082;9.102;2023-05-17T08:05:09;7.68;;;2.42;;
27889;SDS011;15238;49.082;9.102;2023-05-17T08:07:09;6.03;;;2.35;;
27889;SDS011;15238;49.082;9.102;2023-05-17T08:09:10;4.10;;;2.40;;
27889;SDS011;15238;49.082;9.102;2023-05-17T08:11:11;8.20;;;2.88;;
27889;SDS011;15238;49.082;9.102;2023-05-17T08:13:12;6.18;;;2.40;;
27889;SDS011;15238;49.082;9.102;2023-05-17T08:15:13;7.07;;;2.40;;
27889;SDS011;15238;49.082;9.102;2023-05-17T08:17:13;8.13;;;2.60;;
27889;SDS011;15238;49.082;9.102;2023-05-17T08:19:14;6.75;;;2.28;;
27889;SDS011;15238;49.082;9.102;2023-05-17T08:21:17;6.57;;;2.40;;
27889;SDS011;15238;49.082;9.102;2023-05-17T08:23:18;5.55;;;2.60;;
27889;SDS011;15238;49.082;9.102;2023-05-17T08:25:18;7.93;;;2.67;;
27889;SDS011;15238;49.082;9.102;2023-05-17T08:27:20;5.85;;;2.65;;
27889;SDS011;15238;49.082;9.102;2023-05-17T08:29:20;5.63;;;2.42;;
27889;SDS011;15238;49.082;9.102;2023-05-17T08:31:21;5.75;;;2.38;;
27889;SDS011;15238;49.082;9.102;2023-05-17T08:33:21;10.93;;;2.50;;
27889;SDS011;15238;49.082;9.102;2023-05-17T08:35:24;5.82;;;2.60;;
27889;SDS011;15238;49.082;9.102;2023-05-17T08:37:26;6.35;;;2.47;;
27889;SDS011;15238;49.082;9.102;2023-05-17T08:39:26;7.90;;;2.42;;
27889;SDS011;15238;49.082;9.102;2023-05-17T08:41:27;6.75;;;3.00;;
27889;SDS011;15238;49.082;9.102;2023-05-17T08:43:28;7.45;;;2.58;;
27889;SDS011;15238;49.082;9.102;2023-05-17T08:45:30;6.55;;;2.50;;
27889;SDS011;15238;49.082;9.102;2023-05-17T08:47:31;6.95;;;2.78;;
27889;SDS011;15238;49.082;9.102;2023-05-17T08:49:33;4.43;;;2.10;;
27889;SDS011;15238;49.082;9.102;2023-05-17T08:51:36;8.90;;;2.80;;
27889;SDS011;15238;49.082;9.102;2023-05-17T08:53:38;4.95;;;1.95;;
27889;SDS011;15238;49.082;9.102;2023-05-17T08:55:42;4.43;;;2.33;;
27889;SDS011;15238;49.082;9.102;2023-05-17T08:57:48;5.18;;;2.35;;
27889;SDS011;15238;49.082;9.102;2023-05-17T08:59:49;11.38;;;3.03;;
27889;SDS011;15238;49.082;9.102;2023-05-17T09:01:52;7.05;;;2.67;;
27889;SDS011;15238;49.082;9.102;2023-05-17T09:03:53;13.68;;;3.83;;
27889;SDS011;15238;49.082;9.102;2023-05-17T09:05:54;6.70;;;2.45;;
27889;SDS011;15238;49.082;9.102;2023-05-17T09:07:57;5.13;;;2.80;;
27889;SDS011;15238;49.082;9.102;2023-05-17T09:09:58;6.15;;;2.63;;
27889;SDS011;15238;49.082;9.102;2023-05-17T09:11:59;7.65;;;2.55;;
27889;SDS011;15238;49.082;9.102;2023-05-17T09:14:03;6.38;;;2.47;;
27889;SDS011;15238;49.082;9.102;2023-05-17T09:16:11;9.45;;;3.05;;
27889;SDS011;15238;49.082;9.102;2023-05-17T09:18:13;6.90;;;2.88;;
27889;SDS011;15238;49.082;9.102;2023-05-17T09:20:14;9.82;;;2.75;;
27889;SDS011;15238;49.082;9.102;2023-05-17T09:22:24;9.20;;;3.05;;
27889;SDS011;15238;49.082;9.102;2023-05-17T09:24:26;7.18;;;2.47;;
27889;SDS011;15238;49.082;9.102;2023-05-17T09:26:40;7.50;;;2.47;;
27889;SDS011;15238;49.082;9.102;2023-05-17T09:28:42;3.95;;;2.70;;
27889;SDS011;15238;49.082;9.102;2023-05-17T09:30:43;5.00;;;2.20;;
27889;SDS011;15238;49.082;9.102;2023-05-17T09:32:44;8.35;;;2.75;;
27889;SDS011;15238;49.082;9.102;2023-05-17T09:34:48;7.47;;;2.10;;
27889;SDS011;15238;49.082;9.102;2023-05-17T09:36:48;5.45;;;2.13;;
27889;SDS011;15238;49.082;9.102;2023-05-17T09:39:00;3.72;;;2.38;;
27889;SDS011;15238;49.082;9.102;2023-05-17T09:41:04;5.50;;;2.85;;
27889;SDS011;15238;49.082;9.102;2023-05-17T09:43:06;9.20;;;2.40;;
27889;SDS011;15238;49.082;9.102;2023-05-17T09:45:07;6.13;;;2.42;;
27889;SDS011;15238;49.082;9.102;2023-05-17T09:47:07;5.10;;;2.38;;
27889;SDS011;15238;49.082;9.102;2023-05-17T09:49:08;4.85;;;2.13;;
27889;SDS011;15238;49.082;9.102;2023-05-17T09:51:09;4.68;;;1.95;;
27889;SDS011;15238;49.082;9.102;2023-05-17T09:53:23;3.95;;;2.13;;
27889;SDS011;15238;49.082;9.102;2023-05-17T09:55:28;5.55;;;1.90;;
27889;SDS011;15238;49.082;9.102;2023-05-17T09:57:35;9.40;;;1.73;;
27889;SDS011;15238;49.082;9.102;2023-05-17T09:59:37;3.10;;;1.70;;
27889;SDS011;15238;49.082;9.102;2023-05-17T10:01:39;5.65;;;1.88;;
27889;SDS011;15238;49.082;9.102;2023-05-17T10:03:41;5.13;;;2.08;;
27889;SDS011;15238;49.082;9.102;2023-05-17T10:05:42;7.85;;;2.22;;
27889;SDS011;15238;49.082;9.102;2023-05-17T10:07:44;5.72;;;1.63;;
27889;SDS011;15238;49.082;9.102;2023-05-17T10:09:46;3.20;;;1.60;;
27889;SDS011;15238;49.082;9.102;2023-05-17T10:11:49;6.60;;;1.73;;
27889;SDS011;15238;49.082;9.102;2023-05-17T10:13:54;5.43;;;2.33;;
27889;SDS011;15238;49.082;9.102;2023-05-17T10:16:01;5.40;;;1.90;;
27889;SDS011;15238;49.082;9.102;2023-05-17T10:18:02;3.70;;;2.05;;
27889;SDS011;15238;49.082;9.102;2023-05-17T10:20:03;7.65;;;2.13;;
27889;SDS011;15238;49.082;9.102;2023-05-17T10:22:06;5.78;;;1.88;;
27889;SDS011;15238;49.082;9.102;2023-05-17T10:24:07;12.23;;;2.40;;
27889;SDS011;15238;49.082;9.102;2023-05-17T10:26:11;8.25;;;1.80;;
27889;SDS011;15238;49.082;9.102;2023-05-17T10:28:13;3.35;;;1.52;;
27889;SDS011;15238;49.082;9.102;2023-05-17T10:30:16;4.32;;;1.55;;
27889;SDS011;15238;49.082;9.102;2023-05-17T10:32:19;5.22;;;1.88;;
27889;SDS011;15238;49.082;9.102;2023-05-17T10:34:21;7.22;;;2.50;;
27889;SDS011;15238;49.082;9.102;2023-05-17T10:36:24;8.02;;;2.22;;
27889;SDS011;15238;49.082;9.102;2023-05-17T10:38:25;5.03;;;1.90;;
27889;SDS011;15238;49.082;9.102;2023-05-17T10:40:27;6.30;;;2.08;;
27889;SDS011;15238;49.082;9.102;2023-05-17T10:42:29;4.93;;;1.80;;
27889;SDS011;15238;49.082;9.102;2023-05-17T10:44:31;5.63;;;1.90;;
27889;SDS011;15238;49.082;9.102;2023-05-17T10:46:32;5.30;;;1.90;;
27889;SDS011;15238;49.082;9.102;2023-05-17T10:48:33;6.35;;;2.00;;
27889;SDS011;15238;49.082;9.102;2023-05-17T10:50:36;7.03;;;2.30;;
27889;SDS011;15238;49.082;9.102;2023-05-17T10:52:44;6.30;;;2.13;;
27889;SDS011;15238;49.082;9.102;2023-05-17T10:54:47;4.93;;;2.08;;
27889;SDS011;15238;49.082;9.102;2023-05-17T10:56:51;5.53;;;2.17;;
27889;SDS011;15238;49.082;9.102;2023-05-17T10:59:12;4.50;;;2.05;;
27889;SDS011;15238;49.082;9.102;2023-05-17T11:01:24;5.32;;;1.88;;
27889;SDS011;15238;49.082;9.102;2023-05-17T11:03:53;4.28;;;2.20;;
27889;SDS011;15238;49.082;9.102;2023-05-17T11:08:11;3.47;;;2.00;;
27889;SDS011;15238;49.082;9.102;2023-05-17T11:10:14;11.30;;;2.35;;
27889;SDS011;15238;49.082;9.102;2023-05-17T11:12:17;4.30;;;1.88;;
27889;SDS011;15238;49.082;9.102;2023-05-17T11:14:46;5.63;;;2.03;;
27889;SDS011;15238;49.082;9.102;2023-05-17T11:16:48;7.95;;;2.08;;
27889;SDS011;15238;49.082;9.102;2023-05-17T11:18:57;7.13;;;2.05;;
27889;SDS011;15238;49.082;9.102;2023-05-17T11:21:07;9.63;;;3.00;;
27889;SDS011;15238;49.082;9.102;2023-05-17T11:23:15;3.95;;;1.85;;
27889;SDS011;15238;49.082;9.102;2023-05-17T11:27:18;7.53;;;1.90;;
27889;SDS011;15238;49.082;9.102;2023-05-17T11:29:28;6.82;;;2.30;;
27889;SDS011;15238;49.082;9.102;2023-05-17T11:31:30;8.40;;;2.22;;
27889;SDS011;15238;49.082;9.102;2023-05-17T11:33:36;6.25;;;2.25;;
27889;SDS011;15238;49.082;9.102;2023-05-17T11:35:40;5.85;;;2.20;;
27889;SDS011;15238;49.082;9.102;2023-05-17T11:37:42;5.97;;;1.95;;
27889;SDS011;15238;49.082;9.102;2023-05-17T11:40:02;5.43;;;1.95;;
27889;SDS011;15238;49.082;9.102;2023-05-17T11:42:05;6.30;;;1.90;;
27889;SDS011;15238;49.082;9.102;2023-05-17T11:44:30;5.97;;;2.10;;
27889;SDS011;15238;49.082;9.102;2023-05-17T11:46:32;5.07;;;2.20;;
27889;SDS011;15238;49.082;9.102;2023-05-17T11:48:33;4.30;;;2.13;;
27889;SDS011;15238;49.082;9.102;2023-05-17T11:50:34;4.90;;;1.90;;
27889;SDS011;15238;49.082;9.102;2023-05-17T11:52:36;4.07;;;1.98;;
27889;SDS011;15238;49.082;9.102;2023-05-17T11:54:40;5.85;;;1.95;;
27889;SDS011;15238;49.082;9.102;2023-05-17T11:56:41;5.68;;;2.22;;
27889;SDS011;15238;49.082;9.102;2023-05-17T11:58:42;4.93;;;2.08;;
27889;SDS011;15238;49.082;9.102;2023-05-17T12:00:44;5.13;;;2.13;;
27889;SDS011;15238;49.082;9.102;2023-05-17T12:02:45;3.90;;;2.40;;
27889;SDS011;15238;49.082;9.102;2023-05-17T12:04:45;7.95;;;2.10;;
27889;SDS011;15238;49.082;9.102;2023-05-17T12:06:46;9.43;;;2.80;;
27889;SDS011;15238;49.082;9.102;2023-05-17T12:08:46;10.27;;;2.63;;
27889;SDS011;15238;49.082;9.102;2023-05-17T12:10:48;6.40;;;2.40;;
27889;SDS011;15238;49.082;9.102;2023-05-17T12:12:50;6.38;;;2.38;;
27889;SDS011;15238;49.082;9.102;2023-05-17T12:14:51;7.55;;;1.95;;
27889;SDS011;15238;49.082;9.102;2023-05-17T12:16:52;5.53;;;2.10;;
27889;SDS011;15238;49.082;9.102;2023-05-17T12:18:55;5.53;;;2.10;;
27889;SDS011;15238;49.082;9.102;2023-05-17T12:20:57;6.43;;;2.45;;
27889;SDS011;15238;49.082;9.102;2023-05-17T12:22:59;6.28;;;2.15;;
27889;SDS011;15238;49.082;9.102;2023-05-17T12:24:59;7.28;;;2.17;;
27889;SDS011;15238;49.082;9.102;2023-05-17T12:27:00;5.47;;;2.25;;